This is the latest recevied weather packets stored in our database for station/object G7TKI-13. If no packets are shown the sender has not sent any weather packets the latest 10 day(s).
| Time | Temp. | Humidity | Pressure | Rain* | Wind** | Luminosity | Snow |
|---|---|---|---|---|---|---|---|
| 1777600127 | 6.67° C | 86% | 1025.4 hPa | 0 mm | - | 0 W/m² | - |
| 1777594060 | 8.89° C | 77% | 1025.4 hPa | 0 mm | - | 0 W/m² | - |
| 1777589214 | 8.33° C | 74% | 1025.7 hPa | 0 mm | - | 0 W/m² | - |
| 1777584975 | 9.44° C | 67% | 1025.5 hPa | 0 mm | - | 0 W/m² | - |
| 1777583758 | 10° C | 63% | 1025.6 hPa | 0 mm | - | 0 W/m² | - |
| 1777574370 | 15.56° C | 45% | 1025.6 hPa | 0 mm | - | 22 W/m² | - |
| 1777571920 | 17.22° C | 39% | 1025.5 hPa | 0 mm | - | 36 W/m² | - |
| 1777568914 | 18.33° C | 38% | 1025.3 hPa | 0 mm | - | 120 W/m² | - |
| 1777567678 | 18.33° C | 38% | 1025.5 hPa | 0 mm | - | 224 W/m² | - |
| 1777565858 | 18.89° C | 38% | 1025.7 hPa | 0 mm | - | 289 W/m² | - |
| 1777564655 | 18.89° C | 38% | 1026 hPa | 0 mm | - | 333 W/m² | - |
| 1777561655 | 18.89° C | 38% | 1026.1 hPa | 0 mm | - | 452 W/m² | - |
| 1777561006 | 18.89° C | 39% | 1026.1 hPa | 0 mm | - | 476 W/m² | - |
| 1777559798 | 18.89° C | 37% | 1026.3 hPa | 0 mm | - | 518 W/m² | - |
| 1777556735 | - | - | 1026.7 hPa | 0 mm | - | - | - |
| 1777549474 | 18.89° C | 44% | 1026.9 hPa | 0 mm | - | 688 W/m² | - |
| 1777545094 | 18.33° C | 44% | 1027.4 hPa | 0 mm | - | 654 W/m² | - |
| 1777544479 | 17.78° C | 48% | 1027.4 hPa | 0 mm | - | 642 W/m² | - |
| 1777543839 | 17.22° C | 47% | 1027.6 hPa | 0 mm | - | 621 W/m² | - |
| 1777543236 | 17.22° C | 48% | 1027.6 hPa | 0 mm | - | 604 W/m² | - |
| 1777539567 | 16.11° C | 54% | 1028 hPa | 0 mm | - | 472 W/m² | - |
| 1777537118 | 15° C | 59% | 1027.9 hPa | 0 mm | - | 370 W/m² | - |
| 1777531663 | 11.67° C | 70% | 1027.7 hPa | 0 mm | - | 142 W/m² | - |
| 1777528027 | 8.89° C | 79% | 1028 hPa | 0 mm | - | 29 W/m² | - |
| 1777524394 | 8.33° C | 78% | 1027.7 hPa | 0 mm | - | 6 W/m² | - |
* Rain latest hour (hover to see other rain measurements)
** Current wind speed in m/s (hover to see current wind gust speed)